Time;durP1;ratioP1;P1;durP2;ratioP2;P2;SDS_P1;SDS_P2;PMS_P1;PMS_P2;Temp;Humidity;BMP_temperature;BMP_pressure;BME280_temperature;BME280_humidity;BME280_pressure;Samples;Min_cycle;Max_cycle;Signal;HPM_P1;HPM_P2
2024/01/05 00:00:24;;;;;;;13.52;4.45;;;;;;;3.81;100.00;99687.69;5228091;28;20435;-74
2024/01/05 00:02:59;;;;;;;11.88;4.88;;;;;;;3.72;100.00;99677.56;5224836;28;20031;-75
2024/01/05 00:05:29;;;;;;;13.00;3.60;;;;;;;3.79;100.00;99678.28;5229050;28;20029;-75
2024/01/05 00:07:59;;;;;;;8.68;3.83;;;;;;;3.77;100.00;99690.38;5229910;28;20028;-72
2024/01/05 00:10:30;;;;;;;13.25;5.28;;;;;;;3.90;100.00;99684.03;5227495;28;20108;-74
2024/01/05 00:13:00;;;;;;;9.23;3.88;;;;;;;4.02;100.00;99687.22;5228501;28;20021;-74
2024/01/05 00:15:30;;;;;;;10.07;4.18;;;;;;;3.97;100.00;99681.28;5231381;28;20379;-75
2024/01/05 00:18:05;;;;;;;8.05;3.50;;;;;;;4.06;100.00;99670.72;5228753;28;20037;-72
2024/01/05 00:20:35;;;;;;;7.95;3.95;;;;;;;3.97;100.00;99676.09;5228439;28;20387;-75
2024/01/05 00:23:05;;;;;;;6.78;3.85;;;;;;;3.96;100.00;99671.81;5227893;28;20162;-74
2024/01/05 00:25:36;;;;;;;10.52;4.18;;;;;;;4.05;100.00;99673.34;5229641;28;20032;-74
2024/01/05 00:28:06;;;;;;;10.05;4.03;;;;;;;4.10;100.00;99679.28;5226409;28;20390;-74
2024/01/05 00:30:36;;;;;;;11.73;4.40;;;;;;;3.99;100.00;99671.75;5227748;28;20016;-74
2024/01/05 00:33:07;;;;;;;10.10;4.28;;;;;;;3.98;100.00;99661.47;5225190;28;20036;-74
2024/01/05 00:35:37;;;;;;;8.55;4.07;;;;;;;3.85;100.00;99666.06;5227184;28;20071;-74
2024/01/05 00:38:07;;;;;;;9.35;4.30;;;;;;;3.79;100.00;99668.78;5228092;28;20054;-74
2024/01/05 00:40:38;;;;;;;7.45;3.90;;;;;;;3.74;100.00;99655.13;5231945;28;20028;-74
2024/01/05 00:43:08;;;;;;;13.57;4.53;;;;;;;3.59;100.00;99652.88;5228604;28;20304;-74
2024/01/05 00:45:38;;;;;;;9.07;4.18;;;;;;;3.53;100.00;99651.34;5224719;28;20064;-75
2024/01/05 00:48:08;;;;;;;9.52;4.30;;;;;;;3.37;100.00;99644.81;5225511;28;20099;-74
2024/01/05 00:50:39;;;;;;;10.57;5.57;;;;;;;3.51;100.00;99637.63;5229541;28;20044;-74
2024/01/05 00:53:09;;;;;;;11.70;5.45;;;;;;;3.58;100.00;99643.44;5226555;28;20458;-74
2024/01/05 00:55:40;;;;;;;14.27;5.03;;;;;;;3.41;100.00;99644.72;5222890;28;20040;-74
2024/01/05 00:58:10;;;;;;;10.68;4.90;;;;;;;3.49;100.00;99644.53;5228115;28;20415;-74
2024/01/05 01:00:40;;;;;;;12.30;5.32;;;;;;;3.55;100.00;99634.06;5232197;28;20032;-73
2024/01/05 01:03:10;;;;;;;11.48;4.82;;;;;;;3.59;100.00;99642.56;5227965;28;20436;-74
2024/01/05 01:05:41;;;;;;;13.45;4.88;;;;;;;3.69;100.00;99636.31;5226850;28;20028;-74
2024/01/05 01:08:12;;;;;;;12.43;5.35;;;;;;;3.59;100.00;99639.97;5220626;28;20366;-74
2024/01/05 01:10:43;;;;;;;14.13;5.03;;;;;;;3.66;100.00;99636.38;5227390;28;20745;-74
2024/01/05 01:13:13;;;;;;;15.05;5.00;;;;;;;3.67;100.00;99637.22;5228905;28;20056;-72
2024/01/05 01:15:43;;;;;;;11.23;4.38;;;;;;;3.61;100.00;99632.22;5226273;28;20020;-74
2024/01/05 01:18:13;;;;;;;10.43;4.63;;;;;;;3.62;100.00;99634.72;5225987;28;20021;-74
2024/01/05 01:20:44;;;;;;;11.15;4.82;;;;;;;3.75;100.00;99623.25;5224322;28;20039;-74
2024/01/05 01:23:14;;;;;;;11.95;4.53;;;;;;;3.74;100.00;99618.97;5227863;28;20028;-73
2024/01/05 01:25:44;;;;;;;13.85;5.20;;;;;;;3.76;100.00;99617.19;5227905;28;20024;-74
2024/01/05 01:28:15;;;;;;;11.07;4.75;;;;;;;3.91;100.00;99622.00;5229020;28;20478;-74
2024/01/05 01:30:45;;;;;;;12.20;4.57;;;;;;;4.02;100.00;99614.84;5230493;28;20099;-74
2024/01/05 01:33:15;;;;;;;13.57;4.90;;;;;;;3.96;100.00;99609.78;5226595;28;20603;-74
2024/01/05 01:35:45;;;;;;;10.25;3.92;;;;;;;3.87;100.00;99611.75;5227070;28;20024;-73
2024/01/05 01:38:16;;;;;;;11.55;4.53;;;;;;;3.91;100.00;99606.50;5226881;28;20047;-74
2024/01/05 01:40:46;;;;;;;13.23;4.90;;;;;;;3.90;100.00;99607.38;5230832;28;20100;-74
2024/01/05 01:43:25;;;;;;;9.88;4.55;;;;;;;3.90;100.00;99604.78;5223927;28;20028;-73
2024/01/05 01:46:00;;;;;;;11.77;4.72;;;;;;;3.76;100.00;99606.03;5226404;28;20044;-74
2024/01/05 01:48:30;;;;;;;8.20;4.40;;;;;;;3.80;100.00;99607.63;5231627;28;20503;-75
2024/01/05 01:51:01;;;;;;;10.65;5.07;;;;;;;3.89;100.00;99591.91;5228324;28;20278;-74
2024/01/05 01:53:32;;;;;;;11.07;5.10;;;;;;;3.98;100.00;99591.69;5209195;28;20039;-75
2024/01/05 01:56:03;;;;;;;8.30;4.55;;;;;;;4.02;100.00;99591.56;5216980;28;20579;-74
2024/01/05 01:58:33;;;;;;;11.05;5.00;;;;;;;3.97;100.00;99583.06;5228495;28;20496;-74
2024/01/05 02:01:05;;;;;;;12.52;5.07;;;;;;;3.89;100.00;99581.56;5227292;28;20017;-74
2024/01/05 02:03:36;;;;;;;11.40;4.47;;;;;;;3.97;100.00;99585.66;5231308;28;20021;-74
2024/01/05 02:06:06;;;;;;;9.80;4.75;;;;;;;4.07;100.00;99576.78;5225448;28;20027;-74
2024/01/05 02:08:36;;;;;;;7.82;4.38;;;;;;;4.03;100.00;99582.06;5227333;28;20127;-75
2024/01/05 02:11:07;;;;;;;10.63;4.70;;;;;;;3.98;100.00;99576.19;5226246;28;20108;-74
2024/01/05 02:13:37;;;;;;;11.25;4.95;;;;;;;3.89;100.00;99572.09;5223683;28;20482;-74
2024/01/05 02:16:07;;;;;;;10.38;4.85;;;;;;;3.88;100.00;99572.97;5223755;28;20025;-74
2024/01/05 02:18:38;;;;;;;11.55;5.05;;;;;;;3.87;100.00;99571.28;5228200;28;20043;-74
2024/01/05 02:21:11;;;;;;;10.23;5.13;;;;;;;3.89;100.00;99561.75;5225524;28;20052;-74
2024/01/05 02:23:42;;;;;;;9.30;4.82;;;;;;;3.98;100.00;99568.41;5205543;28;20044;-74
2024/01/05 02:26:12;;;;;;;10.70;5.78;;;;;;;3.91;100.00;99554.81;5228373;28;20033;-73
2024/01/05 02:28:43;;;;;;;11.13;5.45;;;;;;;3.84;100.00;99563.63;5225875;28;20029;-74
2024/01/05 02:31:13;;;;;;;12.07;5.57;;;;;;;3.79;100.00;99549.94;5229469;28;20485;-72
2024/01/05 02:33:43;;;;;;;12.25;5.65;;;;;;;3.84;100.00;99548.09;5226219;28;20032;-74
2024/01/05 02:36:14;;;;;;;13.65;5.78;;;;;;;3.90;100.00;99542.78;5226248;28;20029;-72
2024/01/05 02:38:44;;;;;;;11.32;5.70;;;;;;;4.00;100.00;99539.09;5228000;28;20067;-74
2024/01/05 02:41:14;;;;;;;10.75;5.72;;;;;;;3.95;100.00;99535.75;5225167;28;20036;-73
2024/01/05 02:43:44;;;;;;;13.77;6.18;;;;;;;3.95;100.00;99530.56;5227936;28;20071;-74
2024/01/05 02:46:15;;;;;;;15.13;7.38;;;;;;;3.90;100.00;99535.03;5229017;28;20398;-73
2024/01/05 02:48:45;;;;;;;15.27;7.18;;;;;;;3.84;100.00;99522.28;5230752;28;20119;-74
2024/01/05 02:51:15;;;;;;;15.93;7.35;;;;;;;3.76;100.00;99521.59;5229626;28;20025;-73
2024/01/05 02:53:46;;;;;;;15.80;7.55;;;;;;;3.76;100.00;99519.00;5232775;28;20077;-73
2024/01/05 02:56:22;;;;;;;15.80;8.13;;;;;;;3.88;100.00;99508.38;5229308;28;20021;-73
2024/01/05 02:58:54;;;;;;;16.05;8.23;;;;;;;3.83;100.00;99504.22;5231558;28;20041;-74
2024/01/05 03:01:24;;;;;;;15.43;8.80;;;;;;;3.90;100.00;99495.41;5230674;28;20028;-73
2024/01/05 03:03:55;;;;;;;14.35;8.07;;;;;;;3.77;100.00;99500.03;5229923;28;20025;-74
2024/01/05 03:06:25;;;;;;;16.23;8.40;;;;;;;3.81;100.00;99491.31;5230647;28;20081;-74
2024/01/05 03:08:56;;;;;;;17.45;8.85;;;;;;;3.81;100.00;99486.16;5229480;28;20017;-74
2024/01/05 03:11:26;;;;;;;14.80;8.63;;;;;;;3.79;100.00;99477.59;5230289;28;20032;-73
2024/01/05 03:13:56;;;;;;;15.35;8.15;;;;;;;3.82;100.00;99471.50;5229677;28;20057;-74
2024/01/05 03:16:26;;;;;;;13.73;7.90;;;;;;;3.94;100.00;99466.84;5231253;28;20035;-74
2024/01/05 03:18:57;;;;;;;17.65;8.23;;;;;;;4.01;100.00;99462.38;5230671;28;20487;-74
2024/01/05 03:21:27;;;;;;;15.88;7.85;;;;;;;3.95;100.00;99457.38;5230460;28;20056;-74
2024/01/05 03:23:58;;;;;;;14.68;8.20;;;;;;;3.99;100.00;99452.06;5233020;28;20461;-74
2024/01/05 03:26:28;;;;;;;17.30;7.85;;;;;;;3.93;100.00;99449.66;5232006;28;20040;-74
2024/01/05 03:28:58;;;;;;;14.82;8.00;;;;;;;4.03;100.00;99442.50;5230448;28;20071;-74
2024/01/05 03:31:29;;;;;;;17.10;8.00;;;;;;;4.01;100.00;99436.53;5232125;28;20040;-74
2024/01/05 03:33:59;;;;;;;13.27;7.45;;;;;;;3.95;100.00;99427.19;5228602;28;20027;-75
2024/01/05 03:36:29;;;;;;;13.60;7.38;;;;;;;3.88;100.00;99425.69;5232915;28;20030;-74
2024/01/05 03:39:00;;;;;;;14.05;7.72;;;;;;;4.08;100.00;99418.22;5229970;28;20525;-74
2024/01/05 03:41:30;;;;;;;13.85;7.60;;;;;;;3.97;100.00;99425.41;5233092;28;20031;-74
2024/01/05 03:44:01;;;;;;;13.90;7.93;;;;;;;3.97;100.00;99430.59;5231293;28;20102;-74
2024/01/05 03:46:31;;;;;;;13.73;7.57;;;;;;;4.00;100.00;99424.50;5229825;28;20111;-75
2024/01/05 03:49:02;;;;;;;17.55;8.15;;;;;;;4.05;100.00;99418.31;5229715;28;20314;-74
2024/01/05 03:51:33;;;;;;;15.80;8.32;;;;;;;3.95;100.00;99411.69;5228143;28;20044;-75
2024/01/05 03:54:03;;;;;;;15.15;8.23;;;;;;;3.93;100.00;99408.31;5230342;28;20490;-74
2024/01/05 03:56:46;;;;;;;15.25;8.13;;;;;;;3.82;100.00;99402.59;5230046;28;20024;-73
2024/01/05 03:59:16;;;;;;;18.17;7.65;;;;;;;3.92;100.00;99396.28;5229129;28;20028;-75
2024/01/05 04:01:49;;;;;;;14.50;8.00;;;;;;;3.78;100.00;99403.56;5230216;28;20028;-75
2024/01/05 04:04:19;;;;;;;14.50;7.97;;;;;;;3.79;100.00;99405.25;5230759;28;20043;-74
2024/01/05 04:06:51;;;;;;;17.20;9.23;;;;;;;3.92;100.00;99404.03;5229739;28;20148;-74
2024/01/05 04:09:21;;;;;;;17.90;8.50;;;;;;;4.01;100.00;99408.97;5230925;28;20316;-74
2024/01/05 04:11:51;;;;;;;16.98;7.95;;;;;;;3.97;100.00;99409.91;5228562;28;21781;-74
2024/01/05 04:14:22;;;;;;;17.98;9.15;;;;;;;4.08;100.00;99407.03;5229684;28;20033;-74
2024/01/05 04:16:52;;;;;;;19.25;7.72;;;;;;;4.19;100.00;99398.09;5229473;28;20051;-74
2024/01/05 04:19:22;;;;;;;18.55;8.32;;;;;;;4.12;100.00;99393.97;5233776;28;20029;-74
2024/01/05 04:21:53;;;;;;;18.17;8.13;;;;;;;4.23;100.00;99388.50;5227003;28;20459;-74
2024/01/05 04:24:23;;;;;;;18.35;8.27;;;;;;;4.13;100.00;99380.16;5229515;28;20029;-74
2024/01/05 04:26:53;;;;;;;18.08;7.93;;;;;;;4.01;100.00;99380.53;5228202;28;20605;-74
2024/01/05 04:29:23;;;;;;;16.23;8.00;;;;;;;3.85;100.00;99374.09;5232345;28;20043;-74
2024/01/05 04:31:54;;;;;;;14.65;7.63;;;;;;;3.88;100.00;99360.22;5225515;28;20036;-75
2024/01/05 04:34:24;;;;;;;14.07;7.68;;;;;;;3.81;100.00;99361.31;5231837;28;20114;-74
2024/01/05 04:36:54;;;;;;;15.93;7.70;;;;;;;3.83;100.00;99360.38;5228864;28;20031;-75
2024/01/05 04:39:25;;;;;;;16.88;8.02;;;;;;;3.96;100.00;99372.03;5231579;28;20028;-73
2024/01/05 04:41:55;;;;;;;16.45;8.38;;;;;;;3.90;100.00;99372.22;5231226;28;20119;-74
2024/01/05 04:44:25;;;;;;;17.38;8.02;;;;;;;3.96;100.00;99363.47;5230019;28;20024;-75
2024/01/05 04:46:55;;;;;;;15.43;7.70;;;;;;;4.00;100.00;99365.94;5231467;28;20039;-74
2024/01/05 04:49:26;;;;;;;15.13;8.30;;;;;;;3.84;100.00;99356.06;5232111;28;20028;-74
2024/01/05 04:51:56;;;;;;;16.38;7.95;;;;;;;3.77;100.00;99347.63;5227863;28;20108;-74
2024/01/05 04:54:26;;;;;;;16.65;8.35;;;;;;;3.83;100.00;99344.88;5230104;28;20029;-74
2024/01/05 04:56:58;;;;;;;18.35;7.70;;;;;;;3.85;100.00;99337.06;5225411;28;20056;-75
2024/01/05 04:59:30;;;;;;;14.85;7.35;;;;;;;3.95;100.00;99348.84;5231764;28;20028;-73
2024/01/05 05:02:01;;;;;;;15.65;7.70;;;;;;;4.06;100.00;99347.66;5226767;28;20094;-74
2024/01/05 05:04:31;;;;;;;17.55;7.80;;;;;;;4.11;100.00;99350.94;5232569;28;20025;-75
2024/01/05 05:07:01;;;;;;;17.80;7.43;;;;;;;4.13;100.00;99351.72;5229033;28;20055;-75
2024/01/05 05:09:32;;;;;;;15.15;7.05;;;;;;;4.23;100.00;99360.91;5231331;28;20032;-75
2024/01/05 05:12:03;;;;;;;13.90;6.95;;;;;;;4.26;100.00;99360.00;5227028;28;20037;-75
2024/01/05 05:14:33;;;;;;;14.40;7.30;;;;;;;4.35;100.00;99363.16;5232684;28;20102;-75
2024/01/05 05:17:04;;;;;;;14.15;7.35;;;;;;;4.37;100.00;99358.78;5226418;28;20028;-74
2024/01/05 05:19:34;;;;;;;11.82;6.70;;;;;;;4.29;100.00;99342.63;5226653;28;20024;-75
2024/01/05 05:22:05;;;;;;;14.82;6.90;;;;;;;4.12;100.00;99344.88;5227005;28;20563;-75
2024/01/05 05:24:35;;;;;;;14.73;7.07;;;;;;;4.23;100.00;99339.38;5231677;28;20078;-74
2024/01/05 05:27:05;;;;;;;14.68;7.03;;;;;;;4.27;100.00;99341.84;5228126;28;20032;-75
2024/01/05 05:29:36;;;;;;;12.93;6.65;;;;;;;4.35;100.00;99345.06;5232240;28;20115;-74
2024/01/05 05:32:06;;;;;;;12.35;6.57;;;;;;;4.34;100.00;99333.00;5227506;28;20430;-75
2024/01/05 05:34:36;;;;;;;13.68;6.93;;;;;;;4.34;100.00;99338.19;5231913;28;20032;-75
2024/01/05 05:37:07;;;;;;;12.63;6.90;;;;;;;4.30;100.00;99339.16;5229474;28;20035;-74
2024/01/05 05:39:37;;;;;;;13.90;7.25;;;;;;;4.34;100.00;99343.34;5232399;28;20034;-75
2024/01/05 05:42:07;;;;;;;13.52;7.60;;;;;;;4.46;100.00;99336.97;5231256;28;20032;-75
2024/01/05 05:44:38;;;;;;;14.93;6.60;;;;;;;4.26;100.00;99336.72;5229816;28;20043;-75
2024/01/05 05:47:09;;;;;;;14.68;7.03;;;;;;;4.23;100.00;99344.53;5228323;28;20115;-75
2024/01/05 05:49:39;;;;;;;13.18;7.05;;;;;;;4.25;100.00;99343.63;5234205;28;20281;-74
2024/01/05 05:52:09;;;;;;;13.38;6.43;;;;;;;4.23;100.00;99340.25;5231608;28;20220;-75
2024/01/05 05:54:40;;;;;;;12.48;6.20;;;;;;;4.37;100.00;99338.09;5231757;28;20158;-75
2024/01/05 05:57:11;;;;;;;14.00;6.38;;;;;;;4.45;100.00;99341.28;5229628;28;20090;-75
2024/01/05 05:59:42;;;;;;;11.35;6.10;;;;;;;4.58;100.00;99332.25;5231016;28;20032;-76
2024/01/05 06:02:12;;;;;;;10.32;5.55;;;;;;;4.57;100.00;99320.19;5228995;28;20056;-75
2024/01/05 06:04:42;;;;;;;11.43;5.63;;;;;;;4.59;100.00;99318.41;5231739;28;20623;-75
2024/01/05 06:07:13;;;;;;;8.43;4.68;;;;;;;4.55;100.00;99315.97;5231898;28;20021;-75
2024/01/05 06:09:43;;;;;;;7.28;4.10;;;;;;;4.50;100.00;99331.63;5228846;28;20020;-75
2024/01/05 06:12:13;;;;;;;8.65;4.32;;;;;;;4.55;100.00;99332.34;5226898;28;20028;-75
2024/01/05 06:14:44;;;;;;;10.43;3.60;;;;;;;4.49;100.00;99326.50;5227336;28;20036;-75
2024/01/05 06:17:15;;;;;;;6.30;3.47;;;;;;;4.39;100.00;99325.94;5226653;28;20029;-75
2024/01/05 06:19:45;;;;;;;6.30;3.55;;;;;;;4.52;100.00;99318.66;5235891;28;20509;-74
2024/01/05 06:22:15;;;;;;;6.93;3.55;;;;;;;4.41;100.00;99326.75;5230704;28;20013;-76
2024/01/05 06:24:46;;;;;;;6.45;3.28;;;;;;;4.35;100.00;99321.78;5235926;28;20503;-75
2024/01/05 06:27:16;;;;;;;6.65;3.45;;;;;;;4.39;100.00;99320.78;5229792;28;20028;-75
2024/01/05 06:29:46;;;;;;;6.22;3.22;;;;;;;4.48;100.00;99324.81;5230386;28;20036;-75
2024/01/05 06:32:17;;;;;;;6.45;3.70;;;;;;;4.46;100.00;99317.09;5234076;28;20028;-75
2024/01/05 06:34:47;;;;;;;7.10;3.55;;;;;;;4.37;100.00;99327.75;5234010;28;20191;-76
2024/01/05 06:37:17;;;;;;;5.47;3.15;;;;;;;4.41;100.00;99324.16;5235613;28;20029;-76
2024/01/05 06:39:48;;;;;;;6.85;3.40;;;;;;;4.48;100.00;99312.72;5234646;28;20036;-75
2024/01/05 06:42:18;;;;;;;6.95;3.25;;;;;;;4.53;100.00;99313.44;5235211;28;20295;-76
2024/01/05 09:26:18;;;;;;;5.88;3.03;;;;;;;6.78;100.00;99289.59;5261298;27;20425;-74
2024/01/05 09:28:49;;;;;;;8.25;3.25;;;;;;;7.01;100.00;99282.56;5285793;27;20146;-75
2024/01/05 09:31:19;;;;;;;9.20;3.83;;;;;;;6.79;100.00;99280.91;5293504;28;20042;-74
2024/01/05 09:33:50;;;;;;;8.05;3.80;;;;;;;7.00;100.00;99285.19;5275446;27;20205;-73
2024/01/05 09:36:20;;;;;;;7.47;3.80;;;;;;;6.49;100.00;99287.31;5271782;28;20496;-73
2024/01/05 09:38:50;;;;;;;7.45;3.90;;;;;;;6.44;100.00;99287.50;5267931;28;20086;-73
2024/01/05 09:41:21;;;;;;;8.90;4.15;;;;;;;6.36;100.00;99291.31;5272161;28;20321;-73
2024/01/05 09:43:52;;;;;;;8.50;4.45;;;;;;;6.46;100.00;99292.63;5266407;28;20074;-73
2024/01/05 09:46:23;;;;;;;7.80;4.40;;;;;;;6.47;100.00;99295.19;5272264;28;20019;-73
2024/01/05 09:48:57;;;;;;;10.50;5.25;;;;;;;6.46;100.00;99293.47;5267752;28;20024;-73
2024/01/05 09:51:30;;;;;;;9.20;4.75;;;;;;;6.51;100.00;99293.28;5260599;28;20103;-74
2024/01/05 09:54:01;;;;;;;10.43;4.78;;;;;;;6.44;100.00;99279.72;5259189;28;20036;-73
2024/01/05 09:56:32;;;;;;;11.93;5.00;;;;;;;6.32;100.00;99279.34;5264005;28;20032;-73
2024/01/05 09:59:04;;;;;;;13.57;6.03;;;;;;;6.31;100.00;99283.72;5268866;28;20028;-73
2024/01/05 10:01:34;;;;;;;11.13;5.15;;;;;;;6.35;100.00;99284.44;5269284;28;20019;-73
2024/01/05 10:04:07;;;;;;;12.05;5.15;;;;;;;6.39;100.00;99286.00;5266548;28;20051;-74
2024/01/05 10:06:38;;;;;;;11.40;5.97;;;;;;;6.58;100.00;99282.59;5268191;28;20530;-73
2024/01/05 10:09:09;;;;;;;12.40;5.70;;;;;;;6.37;100.00;99277.41;5270105;28;20076;-74
2024/01/05 10:11:42;;;;;;;11.63;6.22;;;;;;;6.52;100.00;99267.31;5267890;28;20024;-74
2024/01/05 10:14:13;;;;;;;11.80;5.65;;;;;;;6.61;100.00;99258.28;5262295;28;20031;-73
2024/01/05 10:16:43;;;;;;;13.20;6.40;;;;;;;6.58;100.00;99266.22;5265562;28;20028;-73
2024/01/05 10:19:16;;;;;;;14.05;5.85;;;;;;;6.48;100.00;99273.53;5266670;28;20031;-73
2024/01/05 10:21:47;;;;;;;11.23;5.53;;;;;;;6.61;100.00;99255.69;5268061;28;20028;-74
2024/01/05 10:24:29;;;;;;;14.15;6.10;;;;;;;6.75;100.00;99261.19;5268867;28;20055;-73
2024/01/05 10:27:10;;;;;;;11.98;6.00;;;;;;;6.78;100.00;99261.03;5262937;28;20542;-73
2024/01/05 10:29:42;;;;;;;15.30;5.57;;;;;;;6.57;100.00;99259.34;5267921;28;20034;-73
2024/01/05 10:32:14;;;;;;;12.20;6.57;;;;;;;6.60;100.00;99252.25;5266961;28;20036;-74
2024/01/05 10:34:49;;;;;;;14.00;6.75;;;;;;;6.56;100.00;99258.47;5266060;28;20032;-73
2024/01/05 10:37:21;;;;;;;15.55;6.30;;;;;;;6.54;100.00;99256.84;5256901;28;20020;-73
2024/01/05 10:39:52;;;;;;;12.02;6.50;;;;;;;6.63;100.00;99248.69;5251394;28;20471;-74
2024/01/05 10:42:27;;;;;;;17.52;7.05;;;;;;;6.54;100.00;99251.66;5256227;28;20074;-74
2024/01/05 10:44:57;;;;;;;15.18;6.55;;;;;;;6.75;100.00;99249.03;5249527;28;20031;-74
2024/01/05 10:47:31;;;;;;;14.63;6.70;;;;;;;6.79;100.00;99250.59;5255084;28;20604;-73
2024/01/05 10:50:04;;;;;;;17.10;7.22;;;;;;;6.92;100.00;99227.56;5247269;28;20028;-73
2024/01/05 10:52:35;;;;;;;14.68;7.07;;;;;;;6.94;100.00;99220.56;5247458;28;20031;-73
2024/01/05 10:55:07;;;;;;;14.00;6.38;;;;;;;6.65;100.00;99223.50;5252902;28;20024;-74
2024/01/05 10:57:40;;;;;;;14.73;6.70;;;;;;;6.62;100.00;99221.06;5251353;28;20080;-74
2024/01/05 11:00:13;;;;;;;13.82;6.80;;;;;;;6.65;100.00;99216.59;5253254;28;20524;-74
2024/01/05 11:02:48;;;;;;;17.33;7.68;;;;;;;6.69;100.00;99217.28;5252264;28;20473;-74
2024/01/05 11:05:20;;;;;;;16.13;7.07;;;;;;;6.42;100.00;99219.25;5254090;28;20393;-74
2024/01/05 11:07:52;;;;;;;17.20;7.70;;;;;;;6.51;100.00;99218.91;5249141;28;20036;-74
2024/01/05 11:10:57;;;;;;;16.60;7.80;;;;;;;6.56;100.00;99213.53;5248826;28;20600;-74
2024/01/05 11:14:12;;;;;;;19.40;7.82;;;;;;;6.63;100.00;99217.56;5243282;28;20024;-73
2024/01/05 11:16:48;;;;;;;14.38;7.22;;;;;;;6.66;100.00;99207.91;5248778;28;20024;-73
2024/01/05 11:19:24;;;;;;;16.25;7.40;;;;;;;6.68;100.00;99208.66;5252999;28;20024;-73
2024/01/05 11:21:59;;;;;;;15.88;7.82;;;;;;;6.65;100.00;99202.75;5246548;28;20401;-72
2024/01/05 11:24:31;;;;;;;;;;;;;;;6.55;100.00;99188.47;5254675;28;20038;-73
2024/01/05 11:27:31;;;;;;;12.73;6.72;;;;;;;6.33;100.00;99179.88;5250550;28;20376;-73
2024/01/05 11:30:02;;;;;;;15.57;7.10;;;;;;;6.48;100.00;99197.41;5248031;28;20059;-73
2024/01/05 11:32:37;;;;;;;15.60;7.18;;;;;;;6.46;100.00;99194.88;5250410;28;20518;-73
2024/01/05 11:35:17;;;;;;;16.83;7.35;;;;;;;6.66;100.00;99192.31;5255072;28;20032;-73
2024/01/05 11:37:48;;;;;;;14.55;6.80;;;;;;;6.84;100.00;99188.09;5250383;28;20439;-74
2024/01/05 11:40:31;;;;;;;14.68;6.93;;;;;;;6.92;100.00;99193.81;5255761;28;20096;-73
2024/01/05 11:43:38;;;;;;;17.58;7.97;;;;;;;6.86;100.00;99181.06;5251369;28;20036;-73
2024/01/05 11:46:08;;;;;;;;;;;;;;;6.81;100.00;99170.91;5170310;28;20033;-74
2024/01/05 11:48:38;;;;;;;15.27;7.10;;;;;;;6.64;100.00;99170.78;5238579;28;20425;-74
2024/01/05 11:51:09;;;;;;;12.67;6.27;;;;;;;6.92;100.00;99167.84;5251663;28;20274;-73
2024/01/05 11:53:40;;;;;;;16.10;7.10;;;;;;;7.03;100.00;99156.06;5253135;28;20270;-74
2024/01/05 11:56:11;;;;;;;12.32;6.55;;;;;;;7.04;100.00;99162.09;5248928;28;20036;-73
2024/01/05 11:58:43;;;;;;;13.15;6.25;;;;;;;7.32;100.00;99159.06;5253647;28;20027;-73
2024/01/05 12:01:15;;;;;;;13.50;6.10;;;;;;;7.36;100.00;99159.75;5246747;28;20036;-73
2024/01/05 12:03:46;;;;;;;15.02;6.45;;;;;;;7.42;100.00;99157.75;5243019;28;20024;-74
2024/01/05 12:06:16;;;;;;;13.27;6.28;;;;;;;7.34;100.00;99144.22;5250837;28;20056;-74
2024/01/05 12:08:47;;;;;;;14.10;6.47;;;;;;;7.32;100.00;99145.25;5248380;28;20046;-74
2024/01/05 12:11:19;;;;;;;16.30;7.22;;;;;;;7.40;100.00;99151.78;5253586;28;20028;-74
2024/01/05 12:13:51;;;;;;;13.38;6.20;;;;;;;7.46;100.00;99155.81;5253230;28;20027;-74
2024/01/05 12:16:21;;;;;;;16.35;7.25;;;;;;;7.22;100.00;99144.78;5247019;28;20020;-74
2024/01/05 12:18:52;;;;;;;16.15;6.68;;;;;;;7.33;100.00;99139.13;5241957;28;20039;-74
2024/01/05 12:21:22;;;;;;;15.13;7.20;;;;;;;7.45;100.00;99121.22;5251559;28;20038;-73
2024/01/05 12:23:54;;;;;;;15.32;7.32;;;;;;;7.48;100.00;99117.59;5243472;28;20036;-74
2024/01/05 12:26:25;;;;;;;14.55;6.68;;;;;;;7.52;100.00;99112.19;5247113;28;20024;-74
2024/01/05 12:28:56;;;;;;;13.02;6.97;;;;;;;7.44;100.00;99122.13;5246619;28;20238;-73
2024/01/05 12:31:26;;;;;;;14.45;7.00;;;;;;;7.50;100.00;99127.03;5239591;28;20021;-73
2024/01/05 12:33:58;;;;;;;14.73;6.80;;;;;;;7.28;100.00;99112.47;5242545;28;21094;-71
2024/01/05 12:36:28;;;;;;;14.65;6.75;;;;;;;7.49;100.00;99116.72;5247109;28;20017;-74
2024/01/05 12:39:12;;;;;;;16.38;7.65;;;;;;;7.41;100.00;99117.06;5247978;28;20043;-74
2024/01/05 12:41:45;;;;;;;14.48;7.53;;;;;;;7.28;100.00;99121.13;5249215;28;20111;-74
2024/01/05 12:44:16;;;;;;;15.38;7.20;;;;;;;7.27;100.00;99118.59;5245087;28;22419;-74
2024/01/05 12:46:46;;;;;;;15.65;6.72;;;;;;;7.18;100.00;99118.19;5247936;28;20036;-73
2024/01/05 12:49:21;;;;;;;14.15;6.85;;;;;;;7.14;100.00;99127.84;5249674;28;20021;-74
2024/01/05 12:51:52;;;;;;;14.75;7.13;;;;;;;7.29;100.00;99132.34;5241323;28;20064;-74
2024/01/05 12:54:24;;;;;;;16.52;7.55;;;;;;;6.96;100.00;99146.03;5248489;28;20518;-73
2024/01/05 12:56:54;;;;;;;17.92;7.47;;;;;;;7.08;100.00;99150.69;5247703;28;20044;-73
2024/01/05 12:59:24;;;;;;;19.10;7.97;;;;;;;6.91;100.00;99150.59;5246871;28;20031;-74
2024/01/05 13:02:05;;;;;;;17.48;7.43;;;;;;;7.13;100.00;99135.72;5245539;28;20021;-72
2024/01/05 13:04:35;;;;;;;16.10;7.65;;;;;;;6.79;100.00;99130.34;5243246;28;20058;-75
2024/01/05 13:07:06;;;;;;;14.40;7.28;;;;;;;6.95;100.00;99134.78;5247996;28;20452;-74
2024/01/05 13:09:36;;;;;;;18.33;7.82;;;;;;;6.91;100.00;99145.38;5250029;28;20024;-74
2024/01/05 13:12:07;;;;;;;15.90;7.78;;;;;;;6.92;100.00;99152.25;5245795;28;20485;-74
2024/01/05 13:14:37;;;;;;;18.67;8.15;;;;;;;6.80;100.00;99147.59;5247526;28;20024;-76
2024/01/05 13:17:08;;;;;;;12.88;7.15;;;;;;;6.78;100.00;99159.81;5244978;28;20361;-76
2024/01/05 13:19:39;;;;;;;17.38;7.30;;;;;;;6.84;100.00;99164.72;5251933;28;20020;-73
2024/01/05 13:22:11;;;;;;;15.73;7.97;;;;;;;6.78;100.00;99165.00;5247251;28;20426;-73
2024/01/05 13:24:42;;;;;;;14.05;7.97;;;;;;;6.93;100.00;99159.97;5247123;28;20032;-73
2024/01/05 13:27:12;;;;;;;18.50;7.93;;;;;;;7.03;100.00;99160.41;5243244;28;20052;-73
2024/01/05 13:29:46;;;;;;;18.25;8.30;;;;;;;7.10;100.00;99146.25;5244049;28;20034;-74
2024/01/05 13:32:16;;;;;;;17.75;8.43;;;;;;;6.79;100.00;99148.50;5246129;28;20127;-74
2024/01/05 13:34:46;;;;;;;17.50;8.05;;;;;;;6.99;100.00;99154.53;5248158;28;20134;-73
2024/01/05 13:37:17;;;;;;;19.33;8.75;;;;;;;6.84;100.00;99160.38;5244375;28;20028;-74
2024/01/05 13:39:47;;;;;;;17.83;9.15;;;;;;;6.91;100.00;99151.41;5248239;28;20174;-74
2024/01/05 13:42:17;;;;;;;17.70;9.18;;;;;;;6.82;100.00;99144.03;5246424;28;20400;-74
2024/01/05 13:44:48;;;;;;;25.15;10.10;;;;;;;6.90;100.00;99148.91;5241328;28;20157;-73
2024/01/05 13:47:18;;;;;;;23.70;10.40;;;;;;;6.77;100.00;99152.94;5245285;28;20024;-74
2024/01/05 13:49:48;;;;;;;22.45;10.82;;;;;;;6.70;100.00;99154.94;5242949;28;20030;-74
2024/01/05 13:52:19;;;;;;;21.17;10.25;;;;;;;6.58;100.00;99154.63;5241544;28;20024;-73
2024/01/05 13:54:49;;;;;;;24.33;10.35;;;;;;;6.47;100.00;99155.06;5242497;28;20030;-74
2024/01/05 13:57:21;;;;;;;26.48;11.32;;;;;;;6.44;100.00;99160.38;5246730;28;20444;-74
2024/01/05 13:59:51;;;;;;;22.95;10.77;;;;;;;6.46;100.00;99160.31;5247542;28;20115;-74
2024/01/05 14:02:22;;;;;;;24.67;11.25;;;;;;;6.55;100.00;99163.38;5251376;28;20269;-73
2024/01/05 14:04:52;;;;;;;27.25;12.10;;;;;;;6.68;100.00;99161.94;5244678;28;20101;-74
2024/01/05 14:07:22;;;;;;;28.20;12.48;;;;;;;6.62;100.00;99163.97;5247136;28;20500;-73
2024/01/05 14:09:52;;;;;;;25.95;12.85;;;;;;;6.69;100.00;99161.03;5247730;28;20134;-74
2024/01/05 14:12:23;;;;;;;27.55;13.02;;;;;;;6.74;100.00;99164.28;5240919;28;20147;-74
2024/01/05 14:14:53;;;;;;;26.23;12.63;;;;;;;6.83;100.00;99158.69;5241210;28;20077;-71
2024/01/05 14:17:24;;;;;;;29.98;13.40;;;;;;;6.72;100.00;99162.63;5239596;28;20064;-74
2024/01/05 14:19:54;;;;;;;23.60;12.35;;;;;;;6.67;100.00;99157.66;5254878;28;20477;-74
2024/01/05 14:22:24;;;;;;;22.67;11.38;;;;;;;6.58;100.00;99157.22;5246311;28;20054;-74
2024/01/05 14:24:54;;;;;;;23.02;11.55;;;;;;;6.69;100.00;99161.03;5243120;28;20036;-74
2024/01/05 14:27:25;;;;;;;24.50;11.20;;;;;;;6.64;100.00;99156.94;5246496;28;20055;-74